Warrenton, Texas
Current Conditions -  °F | °C
As of 1:15 PM on Saturday 25 Oct 2014 (Local Time) from K3T5 Reporting Station
Clear Clear  
Wind Chill: 29°   Ceiling: Unl
Heat Index: 29°   Visibility: 10mi
Dew Point: 16°   Wind: 0mph
Humidity: 47%   Direction: NA
Pressure: 30.13"   Gusts: NA
Location:  30.0108°N, 96.7162°W
Report Text: K3T5 251815Z AUTO 00000KT 10SM CLR 29/16 A3013 RMK AO2 T02860164
Loading
Personal Weather Stations






























Interactive Weather Map
Tropical Storm Tracking
New forecast layout! Learn more

10-Day Weather Forecast

Advertisements
Track Severe Weather on mobile